Time;durP1;ratioP1;P1;durP2;ratioP2;P2;SDS_P1;SDS_P2;PMS_P1;PMS_P2;Temp;Humidity;BMP_temperature;BMP_pressure;BME280_temperature;BME280_humidity;BME280_pressure;Samples;Min_cycle;Max_cycle;Signal;HPM_P1;HPM_P2
2022/04/14 00:02:00;;;;;;;45.63;40.67;;;;;;;11.03;97.69;101940.81;4991005;28;20018;-74
2022/04/14 00:04:26;;;;;;;47.05;39.85;;;;;;;11.01;97.83;101938.25;5011363;28;20026;-74
2022/04/14 00:07:05;;;;;;;46.28;40.70;;;;;;;10.98;97.56;101938.44;5011748;28;20140;-74
2022/04/14 00:09:31;;;;;;;47.30;39.40;;;;;;;10.97;97.77;101936.75;5011327;28;20022;-74
2022/04/14 00:11:57;;;;;;;44.50;39.63;;;;;;;10.93;97.57;101932.59;5011526;28;20117;-74
2022/04/14 00:14:23;;;;;;;46.17;41.17;;;;;;;10.90;97.49;101930.16;5011482;28;20699;-74
2022/04/14 00:16:48;;;;;;;45.72;39.97;;;;;;;10.84;97.70;101931.34;5010577;28;20026;-74
2022/04/14 00:19:13;;;;;;;46.42;39.95;;;;;;;10.87;97.37;101931.19;5001054;28;20033;-74
2022/04/14 00:21:42;;;;;;;45.08;38.88;;;;;;;10.82;97.46;101929.75;5011504;28;20026;-74
2022/04/14 00:24:07;;;;;;;47.75;41.15;;;;;;;10.80;97.89;101924.53;5010387;28;20650;-74
2022/04/14 00:26:32;;;;;;;50.17;41.55;;;;;;;10.77;97.85;101918.59;4994247;28;20033;-74
2022/04/14 00:28:58;;;;;;;49.22;40.25;;;;;;;10.80;97.69;101921.06;5011398;28;20030;-74
2022/04/14 00:31:23;;;;;;;49.60;41.67;;;;;;;10.81;98.30;101920.16;5010472;28;20033;-74
2022/04/14 00:33:55;;;;;;;46.67;40.60;;;;;;;10.76;98.52;101916.91;5012070;28;20429;-74
2022/04/14 00:36:21;;;;;;;49.08;40.63;;;;;;;10.77;98.09;101915.97;5011800;28;20037;-74
2022/04/14 00:38:46;;;;;;;46.65;40.03;;;;;;;10.72;98.37;101912.75;5011351;28;20026;-74
2022/04/14 00:41:11;;;;;;;52.63;40.55;;;;;;;10.78;98.31;101920.31;5011858;28;20036;-74
2022/04/14 00:43:38;;;;;;;45.88;37.88;;;;;;;10.79;98.12;101922.00;5012272;28;20026;-74
2022/04/14 00:46:05;;;;;;;48.67;39.90;;;;;;;10.74;98.83;101918.78;5006872;28;20060;-74
2022/04/14 00:48:31;;;;;;;47.53;39.45;;;;;;;10.72;98.27;101910.13;5012207;28;20022;-74
2022/04/14 00:51:01;;;;;;;44.97;38.85;;;;;;;10.74;98.28;101918.78;5012691;28;20026;-74
2022/04/14 00:53:34;;;;;;;48.67;40.50;;;;;;;10.70;98.86;101922.53;5012110;28;20080;-74
2022/04/14 00:56:02;;;;;;;46.95;40.72;;;;;;;10.60;98.97;101896.75;5011658;28;20128;-74
2022/04/14 00:58:28;;;;;;;47.70;38.95;;;;;;;10.73;98.62;101917.09;5010663;28;20046;-74
2022/04/14 01:00:53;;;;;;;45.85;38.20;;;;;;;10.72;98.52;101924.13;5011185;28;20032;-74
2022/04/14 01:03:18;;;;;;;47.30;38.97;;;;;;;10.72;98.53;101925.94;5010553;28;20030;-74
2022/04/14 01:05:48;;;;;;;49.25;40.00;;;;;;;10.69;98.55;101921.69;5009439;28;20413;-74
2022/04/14 01:08:17;;;;;;;46.92;39.90;;;;;;;10.69;98.55;101924.31;5010534;28;20033;-74
2022/04/14 01:10:48;;;;;;;45.92;39.60;;;;;;;10.66;98.64;101916.59;4992809;28;20624;-74
2022/04/14 01:13:20;;;;;;;45.55;39.80;;;;;;;10.63;98.78;101920.25;5008609;28;20088;-74
2022/04/14 01:15:47;;;;;;;49.20;41.13;;;;;;;10.65;98.36;101926.28;4992719;28;20101;-78
2022/04/14 01:18:12;;;;;;;52.55;42.15;;;;;;;10.65;98.94;101921.00;5009848;28;20022;-77
2022/04/14 01:20:42;;;;;;;53.13;41.97;;;;;;;10.65;98.96;101922.81;5009988;28;20029;-74
2022/04/14 01:23:09;;;;;;;50.45;41.67;;;;;;;10.62;99.18;101921.19;5010076;28;20445;-74
2022/04/14 01:25:35;;;;;;;49.42;41.03;;;;;;;10.64;99.13;101923.75;5010709;28;20026;-74
2022/04/14 01:28:02;;;;;;;53.10;44.25;;;;;;;10.64;99.37;101924.59;5009825;28;20025;-74
2022/04/14 01:30:28;;;;;;;52.85;41.75;;;;;;;10.64;99.32;101919.31;4992389;28;20026;-74
2022/04/14 01:32:55;;;;;;;55.38;43.63;;;;;;;10.62;100.00;101922.97;5010090;28;20496;-74
2022/04/14 01:35:22;;;;;;;48.60;41.80;;;;;;;10.57;100.00;101906.59;5009303;28;20030;-74
2022/04/14 01:37:48;;;;;;;53.10;43.47;;;;;;;10.58;99.79;101913.56;5009708;28;20036;-74
2022/04/14 01:40:14;;;;;;;55.30;44.88;;;;;;;10.63;100.00;101927.31;5009633;28;20025;-74
2022/04/14 01:42:42;;;;;;;55.33;43.33;;;;;;;10.60;100.00;101923.06;5010898;28;20594;-74
2022/04/14 01:45:10;;;;;;;52.28;43.33;;;;;;;10.60;100.00;101915.16;5010487;28;20026;-74
2022/04/14 01:47:45;;;;;;;51.42;42.88;;;;;;;10.62;100.00;101917.72;5010222;28;20025;-74
2022/04/14 01:50:15;;;;;;;51.83;42.28;;;;;;;10.59;100.00;101913.47;5010450;28;20026;-74
2022/04/14 01:52:42;;;;;;;55.50;43.72;;;;;;;10.59;100.00;101913.47;5010456;28;20026;-74
2022/04/14 01:55:08;;;;;;;63.10;44.58;;;;;;;10.53;100.00;101905.94;4992298;28;20429;-74
2022/04/14 01:57:33;;;;;;;55.97;43.92;;;;;;;10.62;100.00;101922.97;5006044;28;20045;-74
2022/04/14 02:00:00;;;;;;;58.35;45.47;;;;;;;10.61;100.00;101923.91;5010467;28;20095;-75
2022/04/14 02:02:26;;;;;;;63.40;47.70;;;;;;;10.59;100.00;101921.38;5008749;28;20436;-74
2022/04/14 02:04:51;;;;;;;60.67;46.00;;;;;;;10.59;100.00;101924.00;4992313;28;20030;-74
2022/04/14 02:07:18;;;;;;;60.95;46.78;;;;;;;10.56;100.00;101921.53;5010060;28;20057;-74
2022/04/14 02:09:43;;;;;;;62.22;46.75;;;;;;;10.55;100.00;101917.22;5009077;28;20453;-74
2022/04/14 02:12:11;;;;;;;65.65;48.45;;;;;;;10.58;100.00;101930.19;5009485;28;20105;-74
2022/04/14 02:14:37;;;;;;;60.25;46.35;;;;;;;10.52;100.00;101914.75;4983782;28;20441;-74
2022/04/14 02:17:02;;;;;;;59.35;45.60;;;;;;;10.56;100.00;101924.19;5008300;28;20036;-74
2022/04/14 02:19:28;;;;;;;62.05;46.20;;;;;;;10.50;100.00;101921.06;5008873;28;20339;-74
2022/04/14 02:21:54;;;;;;;59.33;44.92;;;;;;;10.57;100.00;101936.41;5009068;28;20541;-74
2022/04/14 02:24:20;;;;;;;62.03;47.30;;;;;;;10.55;100.00;101927.75;5005240;28;20036;-74
2022/04/14 02:26:46;;;;;;;59.67;45.63;;;;;;;10.52;100.00;101929.69;5002054;28;20021;-74
2022/04/14 02:29:11;;;;;;;61.95;46.38;;;;;;;10.52;100.00;101930.56;5008792;28;20391;-74
2022/04/14 02:31:36;;;;;;;59.15;45.10;;;;;;;10.54;100.00;101936.56;5008880;28;20673;-74
2022/04/14 02:34:01;;;;;;;60.92;44.55;;;;;;;10.52;100.00;101935.81;5009079;28;20030;-74
2022/04/14 02:36:28;;;;;;;58.78;45.22;;;;;;;10.48;100.00;101942.19;5001135;28;20033;-74
2022/04/14 02:38:53;;;;;;;56.38;42.65;;;;;;;10.47;99.94;101940.50;5004340;28;20030;-74
2022/04/14 02:41:18;;;;;;;60.35;45.35;;;;;;;10.43;100.00;101941.59;4991268;28;20053;-74
2022/04/14 02:43:44;;;;;;;57.90;44.55;;;;;;;10.41;99.91;101943.47;4995803;28;20035;-74
2022/04/14 02:46:10;;;;;;;57.63;44.40;;;;;;;10.37;99.44;101939.28;5009168;28;20026;-74
2022/04/14 02:48:35;;;;;;;54.65;43.72;;;;;;;10.36;99.55;101942.84;4981697;28;20026;-74
2022/04/14 02:51:02;;;;;;;54.38;42.13;;;;;;;10.31;99.13;101943.09;4972616;28;20026;-73
2022/04/14 02:53:29;;;;;;;53.03;42.85;;;;;;;10.29;99.39;101946.75;4989336;28;20033;-73
2022/04/14 02:55:54;;;;;;;55.53;43.13;;;;;;;10.26;99.07;101949.56;4990493;28;20025;-75
2022/04/14 02:58:20;;;;;;;52.55;41.95;;;;;;;10.26;99.43;101939.03;4992519;28;20128;-76
2022/04/14 03:00:46;;;;;;;53.95;42.28;;;;;;;10.23;98.98;101936.56;4999058;28;20034;-73
2022/04/14 03:03:11;;;;;;;55.28;44.00;;;;;;;10.24;98.94;101927.75;5009422;28;20026;-73
2022/04/14 03:05:37;;;;;;;52.88;42.65;;;;;;;10.16;99.46;101929.94;5009258;28;20030;-73
2022/04/14 03:08:05;;;;;;;52.17;42.50;;;;;;;10.16;99.45;101932.56;5009396;28;20021;-75
2022/04/14 03:10:31;;;;;;;54.53;43.55;;;;;;;10.17;99.35;101939.50;4991373;28;20034;-73
2022/04/14 03:12:57;;;;;;;57.42;44.92;;;;;;;10.16;99.34;101932.56;5008027;28;20029;-76
2022/04/14 03:15:24;;;;;;;54.92;43.50;;;;;;;10.13;99.06;101936.22;5008787;28;20859;-73
2022/04/14 03:17:50;;;;;;;55.67;43.53;;;;;;;10.12;99.29;101931.88;5008641;28;20053;-73
2022/04/14 03:20:16;;;;;;;53.97;43.38;;;;;;;10.11;99.35;101942.47;5007672;28;20554;-73
2022/04/14 03:22:42;;;;;;;57.83;42.75;;;;;;;10.09;99.15;101941.72;5008886;28;20021;-76
2022/04/14 03:25:09;;;;;;;55.75;43.78;;;;;;;10.01;99.16;101931.63;5008535;28;20022;-74
2022/04/14 03:27:42;;;;;;;59.97;45.83;;;;;;;10.05;100.00;101936.63;5008385;28;20112;-75
2022/04/14 03:30:11;;;;;;;60.38;46.25;;;;;;;9.98;100.00;101924.72;4990600;28;20022;-75
2022/04/14 03:32:41;;;;;;;59.75;46.78;;;;;;;9.99;100.00;101928.19;5007444;28;20084;-74
2022/04/14 03:35:07;;;;;;;60.15;47.38;;;;;;;9.99;100.00;101931.69;4990875;28;20026;-74
2022/04/14 03:37:36;;;;;;;59.95;45.80;;;;;;;10.09;100.00;101944.34;5010720;28;20022;-73
2022/04/14 03:40:08;;;;;;;60.58;46.17;;;;;;;10.08;100.00;101951.38;5011769;28;20026;-74
2022/04/14 03:42:35;;;;;;;66.90;46.83;;;;;;;10.08;100.00;101953.16;4995132;28;20036;-73
2022/04/14 03:45:04;;;;;;;67.07;46.70;;;;;;;10.06;100.00;101945.38;5013038;28;20102;-74
2022/04/14 03:47:31;;;;;;;70.38;47.38;;;;;;;10.04;100.00;101936.72;5012810;28;20104;-74
2022/04/14 03:49:57;;;;;;;72.80;45.80;;;;;;;10.05;100.00;101941.88;5012673;28;20504;-74
2022/04/14 03:52:23;;;;;;;71.82;45.38;;;;;;;10.01;100.00;101940.34;5012679;28;20026;-74
2022/04/14 03:54:49;;;;;;;59.28;43.25;;;;;;;9.99;100.00;101926.41;5011934;28;20482;-74
2022/04/14 03:57:14;;;;;;;60.30;43.20;;;;;;;9.98;100.00;101929.97;5013286;28;20032;-74
2022/04/14 03:59:40;;;;;;;54.38;42.65;;;;;;;9.94;100.00;101933.72;5013044;28;20509;-74
2022/04/14 04:02:05;;;;;;;60.00;42.33;;;;;;;9.97;100.00;101928.28;5011793;28;20038;-74
2022/04/14 04:04:32;;;;;;;68.28;42.22;;;;;;;9.91;100.00;101941.75;4995040;28;20026;-74
2022/04/14 04:06:57;;;;;;;58.13;41.13;;;;;;;9.88;100.00;101938.44;5011553;28;20030;-75
2022/04/14 04:09:23;;;;;;;50.35;41.88;;;;;;;9.90;100.00;101953.22;5011616;28;20579;-74
2022/04/14 04:11:50;;;;;;;68.40;41.42;;;;;;;9.81;100.00;101932.69;5014024;28;20437;-74
2022/04/14 04:14:15;;;;;;;63.53;41.92;;;;;;;9.81;100.00;101937.94;5012597;28;20049;-74
2022/04/14 04:16:41;;;;;;;62.70;42.50;;;;;;;9.84;100.00;101953.53;5002829;28;20065;-74
2022/04/14 04:19:13;;;;;;;51.30;40.42;;;;;;;9.82;100.00;101950.16;4993235;28;20034;-74
2022/04/14 04:21:38;;;;;;;52.80;39.67;;;;;;;9.74;100.00;101949.72;4992957;28;20034;-74
2022/04/14 04:24:09;;;;;;;48.05;40.15;;;;;;;9.73;100.00;101948.84;4992624;28;20077;-74
2022/04/14 04:26:35;;;;;;;58.33;39.83;;;;;;;9.76;100.00;101953.09;4992635;28;20077;-73
2022/04/14 04:29:01;;;;;;;53.38;40.55;;;;;;;9.80;100.00;101967.78;4991640;28;20430;-74
2022/04/14 04:31:29;;;;;;;73.90;41.17;;;;;;;9.78;100.00;101964.38;4991783;28;20352;-74
2022/04/14 04:33:55;;;;;;;49.08;39.50;;;;;;;9.71;100.00;101966.50;5000437;28;20444;-74
2022/04/14 04:36:21;;;;;;;45.97;39.60;;;;;;;9.75;100.00;101975.06;5009976;28;20021;-74
2022/04/14 04:38:47;;;;;;;70.00;39.25;;;;;;;9.72;100.00;101980.47;5011124;28;20461;-74
2022/04/14 04:41:12;;;;;;;54.63;40.08;;;;;;;9.69;100.00;101980.63;5011334;28;20097;-74
2022/04/14 04:43:38;;;;;;;87.32;38.95;;;;;;;9.61;100.00;101975.78;4993368;28;20064;-75
2022/04/14 04:46:08;;;;;;;73.05;39.40;;;;;;;9.61;100.00;101988.06;5011401;28;20473;-74
2022/04/14 04:48:37;;;;;;;77.05;39.15;;;;;;;9.57;100.00;101986.50;4994581;28;20108;-74
2022/04/14 04:51:09;;;;;;;104.13;40.50;;;;;;;9.51;100.00;101981.56;5012525;28;20048;-74
2022/04/14 04:53:34;;;;;;;;;;;;;;;9.62;100.00;101981.88;4995241;28;20053;-74
2022/04/14 04:56:00;;;;;;;88.57;41.17;;;;;;;9.49;100.00;101992.16;5012343;28;19952;-73
2022/04/14 04:58:32;;;;;;;65.75;41.95;;;;;;;9.41;100.00;101987.31;5011323;28;20293;-74
2022/04/14 05:00:57;;;;;;;76.53;41.83;;;;;;;9.40;100.00;101985.59;5011580;28;20057;-74
2022/04/14 05:03:23;;;;;;;72.70;42.45;;;;;;;9.40;100.00;101990.84;5010903;28;20083;-74
2022/04/14 05:05:49;;;;;;;51.78;42.22;;;;;;;9.39;100.00;101994.41;4993819;28;20018;-75
2022/04/14 05:08:15;;;;;;;50.35;41.75;;;;;;;9.37;100.00;101991.00;5011695;28;20061;-74
2022/04/14 05:10:42;;;;;;;53.45;40.28;;;;;;;9.36;100.00;101998.97;5011247;28;20414;-75
2022/04/14 05:13:10;;;;;;;54.47;42.42;;;;;;;9.36;100.00;101994.56;5012147;28;20038;-74
2022/04/14 05:15:36;;;;;;;49.30;41.03;;;;;;;9.36;100.00;101994.56;5013478;28;20030;-74
2022/04/14 05:18:07;;;;;;;71.97;42.63;;;;;;;9.35;100.00;102002.53;5011506;28;20084;-75
2022/04/14 05:20:36;;;;;;;57.25;40.90;;;;;;;9.30;100.00;102000.13;5011051;28;20029;-75
2022/04/14 05:23:07;;;;;;;56.95;40.08;;;;;;;9.29;100.00;101998.44;5010880;28;20029;-75
2022/04/14 05:25:36;;;;;;;54.65;38.92;;;;;;;9.27;100.00;102002.91;5009960;28;20104;-75
2022/04/14 05:28:01;;;;;;;45.45;38.53;;;;;;;9.22;100.00;101997.03;4993808;28;20037;-75
2022/04/14 05:30:27;;;;;;;59.50;40.90;;;;;;;9.24;100.00;102010.94;5010993;28;20485;-75
2022/04/14 05:32:52;;;;;;;46.28;39.13;;;;;;;9.22;100.00;102012.81;5010593;28;20104;-75
2022/04/14 05:35:18;;;;;;;45.20;38.42;;;;;;;9.23;100.00;102013.66;5011108;28;20018;-75
2022/04/14 05:37:59;;;;;;;48.58;38.88;;;;;;;9.20;100.00;102014.63;4992941;28;20025;-75
2022/04/14 05:40:25;;;;;;;45.25;38.38;;;;;;;9.22;100.00;102020.69;4992902;28;20017;-75
2022/04/14 05:42:51;;;;;;;46.40;39.25;;;;;;;9.21;100.00;102032.13;5010608;28;20033;-75
2022/04/14 05:45:28;;;;;;;45.70;38.10;;;;;;;9.16;100.00;102023.59;4993036;28;20037;-75
2022/04/14 05:47:54;;;;;;;47.08;39.47;;;;;;;9.15;100.00;102027.13;4994204;28;20588;-75
2022/04/14 05:50:20;;;;;;;46.45;38.08;;;;;;;9.16;100.00;102022.72;5010360;28;20022;-75
2022/04/14 05:52:45;;;;;;;48.65;38.95;;;;;;;9.14;100.00;102019.34;5011518;28;20033;-75
2022/04/14 05:55:11;;;;;;;46.58;37.58;;;;;;;9.22;100.00;102036.44;5010162;28;20769;-75
2022/04/14 05:57:36;;;;;;;47.88;38.65;;;;;;;9.18;100.00;102024.34;5010983;28;20037;-74
2022/04/14 06:00:06;;;;;;;44.33;38.17;;;;;;;9.27;100.00;102039.69;5009937;28;20026;-74
2022/04/14 06:02:32;;;;;;;48.10;39.13;;;;;;;9.26;100.00;102030.09;5011162;28;20389;-74
2022/04/14 06:04:57;;;;;;;47.47;38.50;;;;;;;9.31;100.00;102028.09;4992923;28;20112;-74
2022/04/14 06:07:22;;;;;;;46.78;37.35;;;;;;;9.37;100.00;102034.81;5010334;28;20128;-74
2022/04/14 06:09:47;;;;;;;46.38;38.25;;;;;;;9.39;100.00;102035.59;5010356;28;20393;-74
2022/04/14 06:12:13;;;;;;;45.67;39.00;;;;;;;9.45;100.00;102031.81;5010869;28;20018;-74
2022/04/14 06:14:46;;;;;;;44.35;39.15;;;;;;;9.48;100.00;102039.53;5010315;28;20367;-74
2022/04/14 06:17:11;;;;;;;49.42;39.55;;;;;;;9.51;100.00;102034.13;5010365;28;20026;-74
2022/04/14 06:19:40;;;;;;;48.33;40.63;;;;;;;9.59;100.00;102042.44;5010489;28;20064;-74
2022/04/14 06:22:05;;;;;;;49.58;39.63;;;;;;;9.62;100.00;102032.66;5010402;28;20056;-74
2022/04/14 06:24:31;;;;;;;49.03;40.42;;;;;;;9.70;100.00;102040.16;5010354;28;20088;-74
2022/04/14 06:26:56;;;;;;;49.17;41.13;;;;;;;9.73;100.00;102043.47;5009256;28;20018;-74
2022/04/14 06:29:22;;;;;;;53.72;41.80;;;;;;;9.76;100.00;102031.94;5009303;28;20562;-74
2022/04/14 06:31:48;;;;;;;53.60;42.40;;;;;;;9.80;100.00;102030.84;5008924;28;20029;-74
2022/04/14 06:34:13;;;;;;;53.92;43.72;;;;;;;9.91;100.00;102039.03;5010067;28;20024;-74
2022/04/14 06:36:46;;;;;;;52.55;41.08;;;;;;;9.97;100.00;102043.97;4992140;28;20029;-75
2022/04/14 06:39:15;;;;;;;55.80;43.55;;;;;;;10.05;100.00;102043.59;5009994;28;20113;-74
2022/04/14 06:41:41;;;;;;;51.22;41.90;;;;;;;10.09;100.00;102046.91;5009820;28;20428;-74
2022/04/14 06:44:06;;;;;;;51.75;42.03;;;;;;;10.14;100.00;102042.25;5009990;28;20030;-74
2022/04/14 06:46:32;;;;;;;52.88;41.78;;;;;;;10.23;100.00;102045.25;5009779;28;20025;-74
2022/04/14 06:48:57;;;;;;;57.25;43.45;;;;;;;10.33;100.00;102035.94;5009895;28;20026;-74
2022/04/14 06:51:22;;;;;;;55.13;43.78;;;;;;;10.40;100.00;102039.09;5009322;28;20040;-74
2022/04/14 06:53:48;;;;;;;54.83;42.88;;;;;;;10.47;100.00;102032.59;5009834;28;20477;-74
2022/04/14 06:56:15;;;;;;;54.45;41.53;;;;;;;10.56;100.00;102036.50;5010340;28;20140;-74
2022/04/14 06:58:42;;;;;;;56.40;41.15;;;;;;;10.64;100.00;102035.13;4977763;28;20070;-74
2022/04/14 07:01:07;;;;;;;54.08;40.47;;;;;;;10.76;100.00;102032.75;4971046;28;20230;-74
2022/04/14 07:03:35;;;;;;;47.75;36.47;;;;;;;10.81;100.00;102025.47;4969903;28;20034;-74
2022/04/14 07:06:01;;;;;;;48.97;37.25;;;;;;;10.96;100.00;102040.38;4969306;28;20018;-74
2022/04/14 07:08:27;;;;;;;47.63;36.83;;;;;;;11.04;100.00;102032.03;4953324;28;20031;-74
2022/04/14 07:10:53;;;;;;;46.15;35.72;;;;;;;11.09;100.00;102036.13;4968558;28;20145;-74
2022/04/14 07:13:19;;;;;;;44.40;34.95;;;;;;;11.17;100.00;102028.63;4972433;28;20030;-74
2022/04/14 07:15:45;;;;;;;45.28;35.63;;;;;;;11.37;100.00;102045.06;4974520;28;20019;-74
2022/04/14 07:18:10;;;;;;;46.25;34.63;;;;;;;11.44;100.00;102049.03;4973539;28;20102;-74
2022/04/14 07:20:36;;;;;;;49.03;36.60;;;;;;;11.55;100.00;102049.25;4973995;28;20031;-74
2022/04/14 07:23:09;;;;;;;42.83;34.55;;;;;;;11.68;100.00;102044.13;4972227;28;20457;-74
2022/04/14 07:25:34;;;;;;;42.78;32.92;;;;;;;11.77;100.00;102048.84;4973086;28;20244;-74
2022/04/14 07:28:01;;;;;;;45.10;34.08;;;;;;;11.85;100.00;102047.47;4973361;28;20082;-74
2022/04/14 07:30:27;;;;;;;45.72;34.10;;;;;;;11.97;100.00;102053.78;4973562;28;20053;-74
2022/04/14 07:32:53;;;;;;;40.90;32.47;;;;;;;12.05;99.44;102059.47;4972979;28;20058;-74
2022/04/14 07:35:21;;;;;;;40.63;31.67;;;;;;;12.15;98.94;102051.84;4973142;28;20082;-74
2022/04/14 07:37:48;;;;;;;40.47;29.70;;;;;;;12.23;98.46;102053.06;4957648;28;20027;-74
2022/04/14 07:40:13;;;;;;;35.53;29.98;;;;;;;12.38;98.81;102055.69;4973622;28;20097;-74
2022/04/14 07:42:44;;;;;;;35.80;29.13;;;;;;;12.48;97.27;102057.69;4972488;28;20030;-74
2022/04/14 07:45:17;;;;;;;35.53;26.80;;;;;;;12.59;95.62;102058.78;4969139;28;20024;-74
2022/04/14 07:47:44;;;;;;;28.33;23.65;;;;;;;12.69;95.13;102059.91;4936987;29;20042;-74
2022/04/14 07:50:11;;;;;;;26.48;21.92;;;;;;;12.82;94.03;102060.84;4953214;29;20511;-74
2022/04/14 07:53:07;;;;;;;28.25;21.65;;;;;;;12.92;93.36;102061.09;4969310;28;20031;-74
2022/04/14 07:55:33;;;;;;;28.55;22.67;;;;;;;13.01;91.68;102060.50;4954712;28;20035;-74
2022/04/14 07:58:07;;;;;;;27.90;22.35;;;;;;;13.14;91.43;102062.22;4977112;28;20075;-74
2022/04/14 08:00:33;;;;;;;28.25;20.70;;;;;;;13.25;89.81;102063.38;4995068;28;20096;-74
2022/04/14 08:03:01;;;;;;;24.98;20.20;;;;;;;13.34;88.77;102060.97;5013163;28;20028;-77
2022/04/14 08:05:37;;;;;;;25.33;20.83;;;;;;;13.41;88.59;102059.59;4994601;28;20037;-74
2022/04/14 08:08:04;;;;;;;26.00;21.70;;;;;;;13.58;88.52;102055.81;5012066;28;20036;-74
2022/04/14 08:10:31;;;;;;;25.23;20.30;;;;;;;13.68;87.56;102051.63;5013016;28;20512;-74
2022/04/14 08:12:57;;;;;;;27.90;21.02;;;;;;;13.79;86.81;102059.69;4994743;28;20065;-74
2022/04/14 08:15:23;;;;;;;24.55;21.15;;;;;;;13.91;86.56;102059.78;5012439;28;20033;-74
2022/04/14 08:17:49;;;;;;;27.48;21.67;;;;;;;14.00;84.75;102065.28;4995228;28;20437;-74
2022/04/14 08:20:16;;;;;;;21.55;18.13;;;;;;;14.13;83.38;102062.66;5012386;28;20053;-74
2022/04/14 08:22:54;;;;;;;19.52;17.38;;;;;;;14.25;83.01;102061.78;5005651;28;20022;-74
2022/04/14 08:25:22;;;;;;;22.15;16.88;;;;;;;14.34;81.61;102061.13;5012480;28;20022;-73
2022/04/14 08:27:49;;;;;;;20.15;16.85;;;;;;;14.49;82.30;102059.25;5012937;28;20037;-75
2022/04/14 08:30:16;;;;;;;17.80;15.85;;;;;;;14.62;80.92;102065.38;5011343;28;20026;-74
2022/04/14 08:32:43;;;;;;;21.13;16.67;;;;;;;14.69;80.12;102065.75;4995988;28;20029;-74
2022/04/14 08:35:08;;;;;;;19.33;16.15;;;;;;;14.82;79.67;102069.25;5011175;28;20041;-74
2022/04/14 08:37:34;;;;;;;22.30;18.70;;;;;;;14.89;79.37;102062.53;5011831;28;20056;-74
2022/04/14 08:40:00;;;;;;;23.30;20.05;;;;;;;15.04;81.12;102053.47;5012401;28;20091;-74
2022/04/14 08:42:34;;;;;;;21.75;19.40;;;;;;;15.15;81.70;102046.50;5010714;28;20026;-74
2022/04/14 08:45:11;;;;;;;21.08;18.08;;;;;;;15.36;81.97;102055.53;5010310;28;20124;-74
2022/04/14 08:47:41;;;;;;;22.27;17.45;;;;;;;15.47;78.08;102054.72;5012065;28;20104;-74
2022/04/14 08:50:09;;;;;;;19.42;16.35;;;;;;;15.55;77.03;102050.53;5010884;28;20119;-74
2022/04/14 08:52:45;;;;;;;20.20;14.25;;;;;;;15.64;74.82;102059.66;4994471;28;20030;-74
2022/04/14 08:55:14;;;;;;;18.10;13.35;;;;;;;15.77;76.14;102056.91;5011984;28;20026;-74
2022/04/14 08:57:42;;;;;;;15.27;12.85;;;;;;;15.87;74.04;102060.53;5011982;28;20083;-74
2022/04/14 09:00:10;;;;;;;16.00;12.20;;;;;;;15.96;72.74;102060.66;5013807;28;20037;-73
2022/04/14 09:02:36;;;;;;;15.60;11.25;;;;;;;16.07;71.13;102057.19;5014736;28;20022;-74
2022/04/14 09:05:05;;;;;;;13.50;9.30;;;;;;;16.16;70.69;102059.13;5013882;28;20021;-74
2022/04/14 09:07:31;;;;;;;13.30;10.23;;;;;;;16.24;71.02;102059.38;4996919;28;20041;-74
2022/04/14 09:09:56;;;;;;;12.25;9.82;;;;;;;16.35;70.89;102060.31;5015911;28;20044;-75
2022/04/14 09:12:22;;;;;;;12.48;9.40;;;;;;;16.45;69.01;102064.81;5012271;28;20073;-74
2022/04/14 09:15:02;;;;;;;17.05;10.10;;;;;;;16.55;68.66;102062.25;5010625;28;20034;-74
2022/04/14 09:17:29;;;;;;;13.85;10.27;;;;;;;16.64;67.80;102061.53;5010825;28;20048;-74
2022/04/14 09:19:54;;;;;;;13.23;9.85;;;;;;;16.80;70.05;102061.16;5012659;28;20034;-74
2022/04/14 09:22:20;;;;;;;18.55;11.75;;;;;;;16.87;67.76;102046.41;5013220;28;20033;-74
2022/04/14 09:24:54;;;;;;;11.98;9.63;;;;;;;17.04;69.72;102042.38;5012205;28;20029;-74
2022/04/14 09:27:29;;;;;;;14.00;9.38;;;;;;;17.10;65.86;102037.38;5012394;28;20033;-74
2022/04/14 09:30:00;;;;;;;12.73;9.63;;;;;;;17.13;66.55;102036.28;5012709;28;20030;-74
2022/04/14 09:32:27;;;;;;;13.65;9.18;;;;;;;17.33;65.41;102043.47;4990728;28;20092;-75
2022/04/14 09:34:53;;;;;;;12.70;9.52;;;;;;;17.43;65.08;102041.72;5009674;28;20018;-75
2022/04/14 09:37:20;;;;;;;12.63;9.57;;;;;;;17.55;66.37;102032.69;5010018;28;20017;-72
2022/04/14 09:39:59;;;;;;;10.65;9.13;;;;;;;17.54;65.26;102024.84;5010107;28;20033;-73
2022/04/14 09:42:29;;;;;;;14.23;8.80;;;;;;;17.64;62.98;102030.25;5007873;28;20060;-75
2022/04/14 09:44:55;;;;;;;12.48;8.20;;;;;;;17.70;62.82;102024.44;5010301;28;20490;-73
2022/04/14 09:47:24;;;;;;;10.07;7.85;;;;;;;17.79;63.72;102023.63;5010263;28;20010;-73
2022/04/14 09:49:59;;;;;;;9.88;7.80;;;;;;;17.90;61.43;102023.56;5010104;28;20100;-73
2022/04/14 09:52:25;;;;;;;11.70;8.07;;;;;;;18.08;63.78;102014.00;4992545;28;20470;-73
2022/04/14 09:55:06;;;;;;;10.77;7.95;;;;;;;18.13;65.33;102011.75;5010136;28;20088;-73
2022/04/14 09:57:33;;;;;;;9.43;7.55;;;;;;;18.21;61.25;102018.25;4992924;28;20033;-74
2022/04/14 09:59:58;;;;;;;13.35;8.27;;;;;;;18.32;60.09;102000.31;5009537;28;20101;-73
2022/04/14 10:02:25;;;;;;;9.77;7.90;;;;;;;18.45;60.77;102000.09;4992563;28;20121;-74
2022/04/14 10:04:57;;;;;;;10.52;7.55;;;;;;;18.60;61.31;101992.53;5012722;28;20026;-73
2022/04/14 10:07:22;;;;;;;9.45;8.00;;;;;;;18.61;58.65;101999.56;5010730;28;20040;-73
2022/04/14 10:09:51;;;;;;;11.30;7.50;;;;;;;18.72;59.68;101997.63;5010994;28;20026;-73
2022/04/14 10:12:20;;;;;;;8.80;5.10;;;;;;;18.77;55.42;102003.41;5011840;28;20029;-74
2022/04/14 10:14:58;;;;;;;8.20;5.80;;;;;;;18.72;56.61;102008.31;5010664;28;20478;-74
2022/04/14 10:17:29;;;;;;;8.40;6.18;;;;;;;18.78;55.68;102013.06;5010764;28;20120;-73
2022/04/14 10:20:02;;;;;;;6.68;5.03;;;;;;;18.92;56.45;102019.00;5010081;28;20412;-74
2022/04/14 10:22:27;;;;;;;6.95;5.28;;;;;;;19.02;54.88;102030.53;5009140;28;20084;-74
2022/04/14 10:24:56;;;;;;;5.32;4.13;;;;;;;19.09;53.63;102035.16;5010511;28;20033;-73
2022/04/14 10:27:22;;;;;;;5.22;4.57;;;;;;;19.26;54.58;102043.47;4991866;28;20029;-73
2022/04/14 10:29:49;;;;;;;7.60;5.43;;;;;;;19.34;52.73;102041.78;5009275;28;20028;-73
2022/04/14 10:32:16;;;;;;;6.97;5.30;;;;;;;19.38;52.92;102031.66;5009347;28;20028;-75
2022/04/14 10:34:41;;;;;;;6.22;4.85;;;;;;;19.49;55.75;102038.66;5007516;28;20482;-73
2022/04/14 10:37:17;;;;;;;5.35;4.50;;;;;;;19.34;52.44;102036.44;5003038;28;20030;-73
2022/04/14 10:39:46;;;;;;;6.53;4.57;;;;;;;19.37;51.89;102049.50;5009018;28;20109;-73
2022/04/14 10:42:16;;;;;;;6.18;4.13;;;;;;;19.31;51.10;102049.22;5010282;28;20013;-73
2022/04/14 10:44:47;;;;;;;4.63;3.17;;;;;;;19.19;50.73;102053.84;5009482;28;20036;-73
2022/04/14 10:47:37;;;;;;;4.40;2.63;;;;;;;19.22;53.16;102058.91;4991319;28;20486;-73
2022/04/14 10:50:17;;;;;;;5.38;3.60;;;;;;;19.17;51.86;102045.13;5008764;28;20029;-74
2022/04/14 10:53:00;;;;;;;6.38;4.30;;;;;;;19.21;55.22;102046.56;4994808;28;20033;-74
2022/04/14 10:55:43;;;;;;;7.22;4.30;;;;;;;19.23;53.93;102041.09;5007520;28;20080;-74
2022/04/14 10:58:31;;;;;;;;;;;;;;;19.34;55.23;102041.78;5009262;28;20045;-74
2022/04/14 11:00:57;;;;;;;7.65;4.28;;;;;;;19.14;52.40;102037.41;5008923;28;20370;-74
2022/04/14 11:03:47;;;;;;;5.93;4.32;;;;;;;19.25;54.08;102036.44;5008270;28;20022;-74
2022/04/14 11:06:40;;;;;;;5.32;3.80;;;;;;;19.36;53.46;102034.47;5009348;28;20104;-74
2022/04/14 11:09:08;;;;;;;3.53;2.70;;;;;;;19.50;51.75;102032.34;5011040;28;20018;-74
2022/04/14 11:12:01;;;;;;;4.95;3.72;;;;;;;19.63;52.04;102038.28;5009768;28;20026;-74
2022/04/14 11:14:34;;;;;;;5.20;3.83;;;;;;;19.66;49.85;102035.31;5009655;28;20497;-74